createdAt,value
2022-07-26T00:01:15.970Z,100546.06
2022-07-26T00:03:42.389Z,100558.78
2022-07-26T00:06:08.992Z,100557.38
2022-07-26T00:08:35.361Z,100549.97
2022-07-26T00:11:07.115Z,100556.94
2022-07-26T00:13:34.609Z,100558.81
2022-07-26T00:16:01.880Z,100562.94
2022-07-26T00:18:28.305Z,100559.81
2022-07-26T00:20:55.489Z,100555.44
2022-07-26T00:23:22.194Z,100562.50
2022-07-26T00:25:48.624Z,100558.88
2022-07-26T00:28:15.044Z,100556.69
2022-07-26T00:30:41.484Z,100559.16
2022-07-26T00:33:08.652Z,100562.50
2022-07-26T00:35:35.085Z,100560.66
2022-07-26T00:38:01.561Z,100558.44
2022-07-26T00:40:27.924Z,100557.53
2022-07-26T00:42:54.373Z,100560.31
2022-07-26T00:45:21.225Z,100562.94
2022-07-26T00:47:47.648Z,100564.56
2022-07-26T00:50:16.453Z,100569.06
2022-07-26T00:52:44.333Z,100566.34
2022-07-26T00:55:11.181Z,100555.81
2022-07-26T00:57:38.895Z,100570.63
2022-07-26T01:00:09.671Z,100562.00
2022-07-26T01:02:36.167Z,100560.78
2022-07-26T01:05:03.348Z,100563.34
2022-07-26T01:07:29.816Z,100560.16
2022-07-26T01:09:56.881Z,100561.47
2022-07-26T01:12:23.583Z,100557.09
2022-07-26T01:14:49.980Z,100557.03
2022-07-26T01:17:16.529Z,100558.88
2022-07-26T01:19:42.969Z,100555.59
2022-07-26T01:22:14.200Z,100559.31
2022-07-26T01:24:41.572Z,100550.56
2022-07-26T01:27:08.311Z,100549.88
2022-07-26T01:29:36.370Z,100552.56
2022-07-26T01:32:04.782Z,100553.53
2022-07-26T01:34:31.281Z,100549.22
2022-07-26T01:36:57.847Z,100550.91
2022-07-26T01:39:24.235Z,100546.09
2022-07-26T01:41:50.686Z,100549.66
2022-07-26T01:44:17.072Z,100550.00
2022-07-26T01:46:43.385Z,100551.34
2022-07-26T01:49:10.008Z,100547.88
2022-07-26T01:51:36.585Z,100557.53
2022-07-26T01:54:03.427Z,100545.56
2022-07-26T01:56:29.843Z,100554.72
2022-07-26T01:58:56.196Z,100551.97
2022-07-26T02:01:38.929Z,100557.34
2022-07-26T02:04:29.527Z,100547.81
2022-07-26T02:06:55.906Z,100554.34
2022-07-26T02:09:22.276Z,100559.81
2022-07-26T02:11:49.098Z,100560.84
2022-07-26T02:14:25.601Z,100565.66
2022-07-26T02:16:59.667Z,100565.78
2022-07-26T02:19:27.805Z,100551.00
2022-07-26T02:21:54.632Z,100564.22
2022-07-26T02:24:21.112Z,100552.78
2022-07-26T02:26:47.578Z,100562.59
2022-07-26T02:29:14.039Z,100562.59
2022-07-26T02:31:40.501Z,100562.59
2022-07-26T02:34:07.248Z,100563.31
2022-07-26T02:36:34.068Z,100563.03
2022-07-26T02:39:00.456Z,100561.47
2022-07-26T02:41:26.899Z,100566.91
2022-07-26T02:43:53.269Z,100560.84
2022-07-26T02:46:19.784Z,100570.75
2022-07-26T02:48:46.300Z,100569.66
2022-07-26T02:51:12.733Z,100572.50
2022-07-26T02:53:39.107Z,100574.72
2022-07-26T02:56:05.779Z,100573.59
2022-07-26T02:58:32.142Z,100566.50
2022-07-26T03:00:58.602Z,100566.50
2022-07-26T03:03:25.200Z,100571.47
2022-07-26T03:05:51.572Z,100576.72
2022-07-26T03:08:17.965Z,100577.66
2022-07-26T03:10:44.547Z,100581.72
2022-07-26T03:13:11.456Z,100580.84
2022-07-26T03:15:38.164Z,100585.19
2022-07-26T03:18:04.612Z,100590.25
2022-07-26T03:20:30.968Z,100591.78
2022-07-26T03:23:12.407Z,100592.63
2022-07-26T03:25:38.851Z,100592.03
2022-07-26T03:28:05.458Z,100585.59
2022-07-26T03:30:32.019Z,100580.00
2022-07-26T03:32:58.490Z,100578.25
2022-07-26T03:35:25.411Z,100584.97
2022-07-26T03:37:52.663Z,100578.22
2022-07-26T03:40:19.711Z,100577.22
2022-07-26T03:42:47.539Z,100580.47
2022-07-26T03:45:15.083Z,100585.81
2022-07-26T03:47:42.133Z,100585.69
2022-07-26T03:50:09.394Z,100585.88
2022-07-26T03:52:35.798Z,100583.97
2022-07-26T03:55:22.787Z,100586.59
2022-07-26T03:57:49.183Z,100584.69
2022-07-26T04:00:15.694Z,100588.97
2022-07-26T04:02:42.100Z,100586.25
2022-07-26T04:05:08.979Z,100587.81
2022-07-26T04:07:52.640Z,100582.34
2022-07-26T04:10:20.135Z,100588.13
2022-07-26T04:12:46.573Z,100590.16
2022-07-26T04:15:13.060Z,100588.28
2022-07-26T04:17:40.990Z,100591.75
2022-07-26T04:20:09.348Z,100599.66
2022-07-26T04:22:36.833Z,100603.78
2022-07-26T04:25:05.355Z,100608.97
2022-07-26T04:27:32.343Z,100609.34
2022-07-26T04:29:59.447Z,100617.22
2022-07-26T04:32:25.848Z,100614.50
2022-07-26T04:34:52.361Z,100626.13
2022-07-26T04:37:18.768Z,100625.97
2022-07-26T04:39:45.541Z,100625.00
2022-07-26T04:42:12.085Z,100619.41
2022-07-26T04:44:38.645Z,100622.97
2022-07-26T04:47:05.114Z,100625.69
2022-07-26T04:49:31.506Z,100629.31
2022-07-26T04:51:59.541Z,100622.72
2022-07-26T04:54:26.693Z,100626.28
2022-07-26T04:56:53.069Z,100624.50
2022-07-26T04:59:21.802Z,100626.59
2022-07-26T05:01:48.477Z,100640.75
2022-07-26T05:04:15.322Z,100645.19
2022-07-26T05:06:41.659Z,100641.34
2022-07-26T05:09:08.855Z,100642.81
2022-07-26T05:11:35.196Z,100632.56
2022-07-26T05:14:01.535Z,100639.38
2022-07-26T05:16:28.039Z,100648.81
2022-07-26T05:18:54.424Z,100645.81
2022-07-26T05:21:20.820Z,100648.53
2022-07-26T05:23:47.308Z,100653.13
2022-07-26T05:26:14.261Z,100649.50
2022-07-26T05:28:41.310Z,100651.16
2022-07-26T05:31:07.868Z,100644.66
2022-07-26T05:33:34.309Z,100648.75
2022-07-26T05:36:00.707Z,100646.78
2022-07-26T05:38:27.617Z,100654.78
2022-07-26T05:40:53.983Z,100648.72
2022-07-26T05:43:20.370Z,100653.78
2022-07-26T05:45:46.879Z,100657.97
2022-07-26T05:48:13.349Z,100659.41
2022-07-26T05:50:39.688Z,100659.38
2022-07-26T05:53:06.108Z,100655.63
2022-07-26T05:55:33.828Z,100657.59
2022-07-26T05:58:00.194Z,100659.09
2022-07-26T06:00:26.632Z,100668.38
2022-07-26T06:02:53.103Z,100668.38
2022-07-26T06:05:19.557Z,100675.91
2022-07-26T06:07:45.937Z,100686.16
2022-07-26T06:10:12.461Z,100679.75
2022-07-26T06:12:38.869Z,100686.03
2022-07-26T06:15:14.896Z,100681.41
2022-07-26T06:17:42.641Z,100686.91
2022-07-26T06:20:09.695Z,100688.88
2022-07-26T06:22:36.025Z,100688.06
2022-07-26T06:25:02.401Z,100694.47
2022-07-26T06:27:28.930Z,100694.41
2022-07-26T06:29:55.279Z,100691.38
2022-07-26T06:32:21.699Z,100695.44
2022-07-26T06:34:48.150Z,100694.72
2022-07-26T06:37:14.623Z,100697.72
2022-07-26T06:39:41.044Z,100696.78
2022-07-26T06:42:07.412Z,100698.16
2022-07-26T06:44:33.782Z,100698.03
2022-07-26T06:47:00.174Z,100694.41
2022-07-26T06:49:26.711Z,100705.03
2022-07-26T06:51:53.127Z,100704.59
2022-07-26T06:54:19.473Z,100705.22
2022-07-26T06:56:45.795Z,100701.72
2022-07-26T06:59:12.174Z,100696.47
2022-07-26T07:01:58.209Z,100704.13
2022-07-26T07:04:25.123Z,100707.75
2022-07-26T07:06:51.624Z,100704.13
2022-07-26T07:09:19.119Z,100716.56
2022-07-26T07:11:45.562Z,100731.53
2022-07-26T07:14:15.133Z,100733.03
2022-07-26T07:16:41.662Z,100742.16
2022-07-26T07:19:08.071Z,100740.81
2022-07-26T07:21:34.464Z,100743.47
2022-07-26T07:24:00.945Z,100748.31
2022-07-26T07:26:28.468Z,100750.69
2022-07-26T07:28:55.626Z,100740.78
2022-07-26T07:31:30.226Z,100739.81
2022-07-26T07:33:57.056Z,100734.28
2022-07-26T07:36:23.435Z,100736.25
2022-07-26T07:38:49.883Z,100733.75
2022-07-26T07:41:16.395Z,100731.13
2022-07-26T07:43:42.773Z,100736.56
2022-07-26T07:46:09.115Z,100753.47
2022-07-26T07:48:37.367Z,100744.44
2022-07-26T07:51:03.900Z,100754.25
2022-07-26T07:53:30.496Z,100757.22
2022-07-26T07:55:57.376Z,100770.63
2022-07-26T07:58:23.855Z,100778.19
2022-07-26T08:00:50.425Z,100794.88
2022-07-26T08:03:18.529Z,100790.19
2022-07-26T08:05:46.369Z,100792.00
2022-07-26T08:08:16.814Z,100790.56
2022-07-26T08:10:49.151Z,100791.66
2022-07-26T08:13:21.439Z,100794.63
2022-07-26T08:15:49.390Z,100795.22
2022-07-26T08:18:15.944Z,100793.50
2022-07-26T08:20:43.488Z,100789.66
2022-07-26T08:23:10.031Z,100789.44
2022-07-26T08:25:39.938Z,100790.44
2022-07-26T08:28:30.653Z,100789.09
2022-07-26T08:30:58.893Z,100793.16
2022-07-26T08:33:25.461Z,100792.66
2022-07-26T08:35:54.853Z,100792.38
2022-07-26T08:38:24.861Z,100795.44
2022-07-26T08:40:51.336Z,100805.16
2022-07-26T08:43:17.714Z,100806.75
2022-07-26T08:45:45.598Z,100818.03
2022-07-26T08:48:17.859Z,100827.34
2022-07-26T08:50:45.194Z,100832.13
2022-07-26T08:53:13.123Z,100841.91
2022-07-26T08:56:05.355Z,100851.56
2022-07-26T08:58:26.358Z,100848.22
2022-07-26T09:01:07.874Z,100848.00
2022-07-26T09:03:37.693Z,100842.22
2022-07-26T09:06:26.452Z,100845.78
2022-07-26T09:09:10.555Z,100846.06
2022-07-26T09:11:37.145Z,100846.97
2022-07-26T09:14:05.793Z,100846.47
2022-07-26T09:16:37.302Z,100849.41
2022-07-26T09:19:22.490Z,100846.13
2022-07-26T09:21:49.496Z,100850.97
2022-07-26T09:24:38.259Z,100858.47
2022-07-26T09:27:07.107Z,100858.38
2022-07-26T09:29:48.533Z,100854.94
2022-07-26T09:32:17.831Z,100868.06
2022-07-26T09:34:52.766Z,100869.34
2022-07-26T09:37:36.513Z,100883.03
2022-07-26T09:40:06.512Z,100889.06
2022-07-26T09:42:33.106Z,100892.19
2022-07-26T09:44:59.537Z,100901.41
2022-07-26T09:47:39.109Z,100904.84
2022-07-26T09:50:26.347Z,100917.63
2022-07-26T09:52:58.868Z,100922.56
2022-07-26T09:55:26.191Z,100923.50
2022-07-26T09:57:52.944Z,100933.50
2022-07-26T10:00:19.816Z,100933.50
2022-07-26T10:02:46.286Z,100929.22
2022-07-26T10:05:12.746Z,100937.19
2022-07-26T10:07:39.350Z,100933.78
2022-07-26T10:10:12.790Z,100936.56
2022-07-26T10:12:43.969Z,100942.59
2022-07-26T10:15:49.550Z,100945.38
2022-07-26T10:18:37.985Z,100936.94
2022-07-26T10:21:21.032Z,100942.56
2022-07-26T10:23:58.685Z,100936.28
2022-07-26T10:26:30.996Z,100941.41
2022-07-26T10:29:15.880Z,100936.69
2022-07-26T10:32:02.463Z,100933.19
2022-07-26T10:34:36.322Z,100930.97
2022-07-26T10:37:09.036Z,100947.22
2022-07-26T10:39:36.751Z,100942.03
2022-07-26T10:42:10.939Z,100938.59
2022-07-26T10:44:42.379Z,100937.25
2022-07-26T10:47:08.766Z,100934.84
2022-07-26T10:49:38.123Z,100945.34
2022-07-26T10:52:24.690Z,100946.66
2022-07-26T10:54:57.172Z,100942.28
2022-07-26T10:57:29.391Z,100952.97
2022-07-26T11:00:00.228Z,100940.38
2022-07-26T11:02:35.896Z,100952.06
2022-07-26T11:05:14.770Z,100951.47
2022-07-26T11:07:55.833Z,100960.34
2022-07-26T11:10:30.731Z,100955.38
2022-07-26T11:13:04.711Z,100950.91
2022-07-26T11:15:31.411Z,100955.66
2022-07-26T11:18:08.267Z,100958.75
2022-07-26T11:20:34.633Z,100961.63
2022-07-26T11:23:01.226Z,100958.00
2022-07-26T11:25:28.843Z,100963.53
2022-07-26T11:28:07.185Z,100980.31
2022-07-26T11:30:34.683Z,100974.06
2022-07-26T11:33:01.036Z,100976.19
2022-07-26T11:35:29.873Z,100976.50
2022-07-26T11:38:07.896Z,100976.19
2022-07-26T11:40:46.395Z,100975.44
2022-07-26T11:43:13.276Z,100972.81
2022-07-26T11:45:40.370Z,100978.56
2022-07-26T11:48:07.081Z,100972.34
2022-07-26T11:50:33.596Z,100975.38
2022-07-26T11:53:00.087Z,100976.09
2022-07-26T11:55:28.859Z,100994.28
2022-07-26T11:57:55.640Z,100987.75
2022-07-26T12:00:23.637Z,100990.25
2022-07-26T12:02:55.495Z,100997.78
2022-07-26T12:05:23.578Z,100995.53
2022-07-26T12:07:55.842Z,100998.34
2022-07-26T12:10:22.597Z,100993.97
2022-07-26T12:12:49.048Z,101002.69
2022-07-26T12:15:15.726Z,101003.94
2022-07-26T12:17:58.823Z,101005.78
2022-07-26T12:20:27.845Z,101009.72
2022-07-26T12:22:56.143Z,100998.88
2022-07-26T12:25:29.341Z,101005.81
2022-07-26T12:27:56.446Z,101010.47
2022-07-26T12:30:23.652Z,101014.00
2022-07-26T12:32:55.105Z,101027.81
2022-07-26T12:35:35.192Z,101020.63
2022-07-26T12:38:02.375Z,101017.44
2022-07-26T12:40:30.945Z,101004.50
2022-07-26T12:43:02.268Z,101021.94
2022-07-26T12:45:31.661Z,101009.66
2022-07-26T12:48:00.370Z,101022.34
2022-07-26T12:50:28.560Z,101016.00
2022-07-26T12:53:08.809Z,101016.09
2022-07-26T12:55:35.995Z,101016.19
2022-07-26T12:58:02.577Z,101023.97
2022-07-26T13:00:29.902Z,101017.72
2022-07-26T13:02:57.211Z,101022.94
2022-07-26T13:05:23.866Z,101021.91
2022-07-26T13:07:52.300Z,101025.94
2022-07-26T13:10:35.704Z,101028.31
2022-07-26T13:13:03.869Z,101039.16
2022-07-26T13:15:36.475Z,101043.69
2022-07-26T13:18:05.820Z,101046.22
2022-07-26T13:20:32.560Z,101041.84
2022-07-26T13:22:59.006Z,101046.53
2022-07-26T13:25:26.079Z,101043.63
2022-07-26T13:27:58.678Z,101039.19
2022-07-26T13:30:25.137Z,101037.13
2022-07-26T13:32:51.788Z,101037.09
2022-07-26T13:35:18.173Z,101046.31
2022-07-26T13:37:44.492Z,101045.28
2022-07-26T13:40:11.383Z,101054.94
2022-07-26T13:42:38.105Z,101054.91
2022-07-26T13:45:06.481Z,101049.84
2022-07-26T13:47:32.925Z,101060.72
2022-07-26T13:49:59.378Z,101054.47
2022-07-26T13:52:25.801Z,101057.13
2022-07-26T13:54:52.165Z,101062.41
2022-07-26T13:57:18.490Z,101055.94
2022-07-26T13:59:44.841Z,101057.50
2022-07-26T14:02:11.323Z,101070.81
2022-07-26T14:04:37.843Z,101075.97
2022-07-26T14:07:04.230Z,101074.19
2022-07-26T14:09:30.593Z,101078.03
2022-07-26T14:11:57.046Z,101072.78
2022-07-26T14:14:23.508Z,101090.41
2022-07-26T14:16:50.069Z,101078.66
2022-07-26T14:19:17.242Z,101080.47
2022-07-26T14:21:47.014Z,101094.06
2022-07-26T14:24:25.466Z,101100.44
2022-07-26T14:26:55.447Z,101102.44
2022-07-26T14:29:25.166Z,101100.38
2022-07-26T14:31:51.589Z,101108.88
2022-07-26T14:34:18.040Z,101101.66
2022-07-26T14:36:44.581Z,101112.53
2022-07-26T14:39:10.973Z,101107.88
2022-07-26T14:41:37.440Z,101113.72
2022-07-26T14:44:04.186Z,101119.19
2022-07-26T14:46:30.662Z,101112.97
2022-07-26T14:48:57.162Z,101116.56
2022-07-26T14:51:23.605Z,101113.38
2022-07-26T14:53:50.012Z,101117.53
2022-07-26T14:56:16.380Z,101117.25
2022-07-26T14:58:42.770Z,101121.50
2022-07-26T15:01:09.307Z,101114.94
2022-07-26T15:03:35.779Z,101116.88
2022-07-26T15:06:02.176Z,101114.50
2022-07-26T15:08:28.543Z,101117.31
2022-07-26T15:10:55.090Z,101112.63
2022-07-26T15:13:21.621Z,101121.72
2022-07-26T15:15:47.979Z,101123.19
2022-07-26T15:18:14.404Z,101122.25
2022-07-26T15:20:41.555Z,101128.16
2022-07-26T15:23:09.481Z,101129.22
2022-07-26T15:25:38.182Z,101140.91
2022-07-26T15:28:05.119Z,101132.91
2022-07-26T15:30:32.255Z,101126.50
2022-07-26T15:32:59.097Z,101123.97
2022-07-26T15:35:25.659Z,101142.50
2022-07-26T15:37:52.141Z,101131.25
2022-07-26T15:40:20.601Z,101129.34
2022-07-26T15:42:49.915Z,101135.31
2022-07-26T15:45:16.513Z,101135.69
2022-07-26T15:47:54.962Z,101131.50
2022-07-26T15:50:22.624Z,101132.13
2022-07-26T15:52:49.119Z,101135.53
2022-07-26T15:55:17.621Z,101122.81
2022-07-26T15:57:45.657Z,101122.47
2022-07-26T16:00:13.219Z,101121.44
2022-07-26T16:02:40.887Z,101126.09
2022-07-26T16:05:09.277Z,101125.91
2022-07-26T16:07:35.954Z,101134.63
2022-07-26T16:10:02.464Z,101127.28
2022-07-26T16:12:29.510Z,101128.56
2022-07-26T16:14:56.302Z,101130.34
2022-07-26T16:17:22.736Z,101134.59
2022-07-26T16:19:49.103Z,101136.44
2022-07-26T16:22:16.490Z,101142.38
2022-07-26T16:24:42.882Z,101153.47
2022-07-26T16:27:09.259Z,101140.06
2022-07-26T16:29:35.705Z,101141.81
2022-07-26T16:32:02.200Z,101135.66
2022-07-26T16:34:29.969Z,101141.09
2022-07-26T16:36:56.350Z,101137.75
2022-07-26T16:39:22.714Z,101143.09
2022-07-26T16:41:49.150Z,101140.88
2022-07-26T16:44:15.598Z,101145.84
2022-07-26T16:46:42.034Z,101150.81
2022-07-26T16:49:10.938Z,101158.78
2022-07-26T16:51:37.748Z,101160.31
2022-07-26T16:54:04.324Z,101159.63
2022-07-26T16:56:30.688Z,101156.84
2022-07-26T16:58:57.073Z,101164.91
2022-07-26T17:01:23.505Z,101168.28
2022-07-26T17:03:49.954Z,101165.03
2022-07-26T17:06:16.337Z,101160.50
2022-07-26T17:08:43.185Z,101171.84
2022-07-26T17:11:09.947Z,101175.94
2022-07-26T17:13:36.314Z,101169.66
2022-07-26T17:16:02.998Z,101167.50
2022-07-26T17:18:29.576Z,101163.19
2022-07-26T17:20:55.941Z,101169.72
2022-07-26T17:23:22.376Z,101170.63
2022-07-26T17:25:48.803Z,101158.22
2022-07-26T17:28:15.149Z,101160.44
2022-07-26T17:30:41.516Z,101167.19
2022-07-26T17:33:07.929Z,101167.19
2022-07-26T17:35:34.408Z,101167.31
2022-07-26T17:38:00.769Z,101171.66
2022-07-26T17:40:29.389Z,101174.13
2022-07-26T17:42:56.243Z,101178.94
2022-07-26T17:45:22.760Z,101182.78
2022-07-26T17:47:49.102Z,101180.66
2022-07-26T17:53:02.035Z,101177.03
2022-07-26T17:55:28.414Z,101166.19
2022-07-26T17:57:54.838Z,101162.31
2022-07-26T18:00:22.770Z,101166.53
2022-07-26T18:02:49.459Z,101166.00
2022-07-26T18:05:16.611Z,101166.00
2022-07-26T18:07:43.205Z,101165.19
2022-07-26T18:10:11.037Z,101171.03
2022-07-26T18:12:37.874Z,101174.09
2022-07-26T18:15:06.276Z,101172.00
2022-07-26T18:17:32.779Z,101172.91
2022-07-26T18:19:59.129Z,101174.72
2022-07-26T18:22:27.123Z,101162.66
2022-07-26T18:24:53.783Z,101177.78
2022-07-26T18:27:20.280Z,101176.81
2022-07-26T18:29:46.635Z,101174.41
2022-07-26T18:32:13.243Z,101173.38
2022-07-26T18:34:39.620Z,101173.66
2022-07-26T18:37:18.575Z,101172.75
2022-07-26T18:39:45.130Z,101172.56
2022-07-26T18:42:11.599Z,101181.03
2022-07-26T18:44:38.310Z,101182.19
2022-07-26T18:47:06.216Z,101190.38
2022-07-26T18:49:34.052Z,101183.88
2022-07-26T18:52:06.156Z,101188.28
2022-07-26T18:54:35.831Z,101183.69
2022-07-26T18:57:02.239Z,101187.06
2022-07-26T18:59:30.020Z,101192.19
2022-07-26T19:01:58.647Z,101186.09
2022-07-26T19:04:25.813Z,101188.44
2022-07-26T19:06:52.268Z,101187.16
2022-07-26T19:09:18.664Z,101197.44
2022-07-26T19:11:47.897Z,101194.78
2022-07-26T19:14:14.308Z,101202.06
2022-07-26T19:16:40.830Z,101198.47
2022-07-26T19:19:07.341Z,101207.78
2022-07-26T19:21:33.764Z,101202.31
2022-07-26T19:24:00.190Z,101197.69
2022-07-26T19:26:27.368Z,101205.50
2022-07-26T19:28:53.937Z,101208.94
2022-07-26T19:31:21.261Z,101202.94
2022-07-26T19:33:47.683Z,101205.88
2022-07-26T19:36:18.045Z,101204.25
2022-07-26T19:38:52.759Z,101202.41
2022-07-26T19:41:21.948Z,101205.84
2022-07-26T19:43:48.333Z,101215.78
2022-07-26T19:46:14.916Z,101216.03
2022-07-26T19:48:41.408Z,101211.72
2022-07-26T19:51:07.884Z,101222.31
2022-07-26T19:53:34.250Z,101223.97
2022-07-26T19:56:00.757Z,101218.63
2022-07-26T19:58:29.083Z,101220.50
2022-07-26T20:00:55.698Z,101227.53
2022-07-26T20:03:22.171Z,101223.88
2022-07-26T20:05:48.556Z,101226.25
2022-07-26T20:08:15.020Z,101226.13
2022-07-26T20:10:41.402Z,101230.34
2022-07-26T20:13:07.879Z,101224.22
2022-07-26T20:15:34.270Z,101229.97
2022-07-26T20:18:00.631Z,101237.09
2022-07-26T20:20:26.958Z,101240.59
2022-07-26T20:22:53.315Z,101236.38
2022-07-26T20:25:21.910Z,101236.59
2022-07-26T20:27:51.204Z,101236.03
2022-07-26T20:30:18.160Z,101235.94
2022-07-26T20:32:44.628Z,101230.72
2022-07-26T20:35:11.258Z,101237.78
2022-07-26T20:37:37.694Z,101236.78
2022-07-26T20:40:05.151Z,101234.38
2022-07-26T20:42:34.183Z,101236.19
2022-07-26T20:45:01.097Z,101235.44
2022-07-26T20:47:27.814Z,101242.63
2022-07-26T20:49:55.663Z,101235.59
2022-07-26T20:52:25.732Z,101245.22
2022-07-26T20:54:52.199Z,101239.22
2022-07-26T20:57:18.682Z,101245.13
2022-07-26T20:59:45.064Z,101239.31
2022-07-26T21:02:11.521Z,101240.06
2022-07-26T21:04:37.987Z,101240.06
2022-07-26T21:07:04.372Z,101245.53
2022-07-26T21:09:30.939Z,101247.22
2022-07-26T21:11:57.544Z,101246.34
2022-07-26T21:14:23.984Z,101248.84
2022-07-26T21:16:50.429Z,101239.19
2022-07-26T21:19:16.934Z,101234.44
2022-07-26T21:21:43.419Z,101236.53
2022-07-26T21:24:09.892Z,101247.84
2022-07-26T21:26:36.625Z,101253.03
2022-07-26T21:29:03.393Z,101248.88
2022-07-26T21:31:29.985Z,101249.88
2022-07-26T21:33:56.477Z,101242.09
2022-07-26T21:36:23.249Z,101248.16
2022-07-26T21:38:49.715Z,101253.31
2022-07-26T21:41:16.092Z,101252.41
2022-07-26T21:43:42.483Z,101251.50
2022-07-26T21:46:12.732Z,101242.69
2022-07-26T21:48:39.781Z,101251.66
2022-07-26T21:51:06.224Z,101252.69
2022-07-26T21:53:32.599Z,101251.09
2022-07-26T21:55:58.981Z,101254.63
2022-07-26T21:58:27.862Z,101264.31
2022-07-26T22:01:03.137Z,101254.53
2022-07-26T22:03:35.168Z,101247.47
2022-07-26T22:06:01.584Z,101259.50
2022-07-26T22:08:27.998Z,101241.84
2022-07-26T22:10:54.429Z,101252.41
2022-07-26T22:13:20.969Z,101253.31
2022-07-26T22:15:47.585Z,101248.03
2022-07-26T22:18:14.361Z,101239.53
2022-07-26T22:20:42.042Z,101249.94
2022-07-26T22:23:11.185Z,101247.16
2022-07-26T22:25:38.596Z,101245.63
2022-07-26T22:28:07.773Z,101244.88
2022-07-26T22:30:34.360Z,101242.16
2022-07-26T22:33:02.583Z,101247.38
2022-07-26T22:35:34.881Z,101250.09
2022-07-26T22:38:10.633Z,101250.00
2022-07-26T22:40:39.237Z,101253.50
2022-07-26T22:43:06.335Z,101252.63
2022-07-26T22:45:33.580Z,101254.47
2022-07-26T22:48:01.714Z,101255.41
2022-07-26T22:50:28.195Z,101253.63
2022-07-26T22:52:54.934Z,101248.38
2022-07-26T22:55:22.094Z,101258.03
2022-07-26T22:57:48.657Z,101260.84
2022-07-26T23:00:17.915Z,101259.22
2022-07-26T23:02:44.672Z,101263.66
2022-07-26T23:05:12.003Z,101260.09
2022-07-26T23:07:38.826Z,101267.81
2022-07-26T23:10:08.555Z,101266.13
2022-07-26T23:12:35.642Z,101258.34
2022-07-26T23:15:02.177Z,101265.66
2022-07-26T23:17:28.523Z,101264.78
2022-07-26T23:19:54.892Z,101260.47
2022-07-26T23:22:21.387Z,101262.16
2022-07-26T23:24:47.743Z,101264.00
2022-07-26T23:27:18.139Z,101264.19
2022-07-26T23:29:47.849Z,101251.94
2022-07-26T23:32:15.548Z,101259.88
2022-07-26T23:34:41.919Z,101257.19
2022-07-26T23:37:08.504Z,101265.97
2022-07-26T23:39:34.970Z,101255.63
2022-07-26T23:42:02.774Z,101254.78
2022-07-26T23:44:30.576Z,101268.78
2022-07-26T23:46:58.241Z,101265.31
2022-07-26T23:49:25.164Z,101258.25
2022-07-26T23:51:51.682Z,101259.03
2022-07-26T23:54:18.076Z,101259.09
2022-07-26T23:56:45.504Z,101258.38
2022-07-26T23:59:12.816Z,101264.53
